createdAt,value
2019-04-11T00:04:02.035Z,67.74292
2019-04-11T00:09:24.936Z,68.572998
2019-04-11T00:14:48.426Z,68.054199
2019-04-11T00:20:11.808Z,68.469238
2019-04-11T00:25:33.789Z,69.018555
2019-04-11T00:30:56.662Z,69.226074
2019-04-11T00:36:20.004Z,69.018555
2019-04-11T00:41:41.837Z,69.641113
2019-04-11T00:47:04.757Z,70.922852
2019-04-11T00:52:27.507Z,70.611572
2019-04-11T00:57:49.907Z,71.130371
2019-04-11T01:03:13.791Z,71.893311
2019-04-11T01:08:35.795Z,72.827148
2019-04-11T01:13:59.462Z,73.797607
2019-04-11T01:19:22.586Z,73.693848
2019-04-11T01:24:44.674Z,72.827148
2019-04-11T01:30:08.288Z,72.619629
2019-04-11T01:35:33.119Z,72.76001
2019-04-11T01:40:56.148Z,72.86377
2019-04-11T01:46:18.509Z,73.590088
2019-04-11T01:51:42.119Z,73.693848
2019-04-11T01:57:03.803Z,73.522949
2019-04-11T02:02:26.512Z,73.419189
2019-04-11T02:07:49.113Z,73.626709
2019-04-11T02:13:12.349Z,73.937988
2019-04-11T02:18:35.200Z,74.145508
2019-04-11T02:23:57.650Z,73.522949
2019-04-11T02:29:21.219Z,74.041748
2019-04-11T02:34:44.439Z,74.908447
2019-04-11T02:40:08.928Z,74.389648
2019-04-11T02:45:42.550Z,75.012207
2019-04-11T02:50:56.468Z,75.012207
2019-04-11T02:56:19.317Z,75.671387
2019-04-11T03:01:42.077Z,75.256348
2019-04-11T03:07:03.985Z,75.982666
2019-04-11T03:12:27.505Z,76.611328
2019-04-11T03:17:53.065Z,77.270508
2019-04-11T03:23:16.199Z,77.166748
2019-04-11T03:28:38.743Z,78.869629
2019-04-11T03:34:46.684Z,78.55835
2019-04-11T03:39:43.346Z,78.765869
2019-04-11T03:44:56.571Z,79.602051
2019-04-11T03:50:16.488Z,78.729248
2019-04-11T03:55:35.014Z,79.91333
2019-04-11T04:01:02.957Z,79.705811
2019-04-11T04:06:21.099Z,80.01709
2019-04-11T04:11:46.581Z,80.957031
2019-04-11T04:17:08.979Z,80.853271
2019-04-11T04:22:31.470Z,81.933594
2019-04-11T04:27:54.585Z,82.769775
2019-04-11T04:33:22.135Z,81.896973
2019-04-11T04:38:44.495Z,81.896973
2019-04-11T04:44:08.415Z,82.312012
2019-04-11T04:49:32.181Z,82.421875
2019-04-11T04:54:54.973Z,82.733154
2019-04-11T05:00:19.310Z,83.355713
2019-04-11T05:05:42.878Z,83.917236
2019-04-11T05:11:05.117Z,84.088135
2019-04-11T05:16:27.816Z,83.984375
2019-04-11T05:21:51.993Z,85.272217
2019-04-11T05:27:14.627Z,85.131836
2019-04-11T05:32:37.488Z,85.650635
2019-04-11T05:37:59.875Z,85.198975
2019-04-11T05:43:24.631Z,84.362793
2019-04-11T05:48:47.135Z,84.326172
2019-04-11T05:54:10.684Z,84.674072
2019-04-11T05:59:32.718Z,84.741211
2019-04-11T06:04:56.147Z,84.533691
2019-04-11T06:10:18.555Z,84.661865
2019-04-11T06:15:44.238Z,84.661865
2019-04-11T06:21:05.160Z,82.855225
2019-04-11T06:26:30.391Z,81.604004
2019-04-11T06:31:52.727Z,81.152344
2019-04-11T06:37:15.530Z,81.152344
2019-04-11T06:42:39.252Z,80.596924
2019-04-11T06:48:01.038Z,80.145264
2019-04-11T06:53:25.849Z,79.272461
2019-04-11T06:58:50.652Z,78.924561
2019-04-11T07:04:13.166Z,78.161621
2019-04-11T07:09:37.035Z,77.093506
2019-04-11T07:14:58.633Z,77.508545
2019-04-11T07:20:21.351Z,77.264404
2019-04-11T07:25:44.909Z,75.048828
2019-04-11T07:31:06.910Z,73.773193
2019-04-11T07:36:31.609Z,72.705078
2019-04-11T07:41:55.958Z,72.845459
2019-04-11T07:47:21.558Z,71.777344
2019-04-11T07:52:40.880Z,71.051025
2019-04-11T07:58:04.321Z,70.709229
2019-04-11T08:03:25.598Z,72.259521
2019-04-11T08:08:49.442Z,67.541504
2019-04-11T08:14:12.826Z,67.645264
2019-04-11T08:19:35.474Z,67.236328
2019-04-11T08:24:59.098Z,66.937256
2019-04-11T08:30:22.725Z,66.729736
2019-04-11T08:35:46.380Z,68.035889
2019-04-11T08:41:10.006Z,65.649414
2019-04-11T08:46:33.763Z,62.854004
2019-04-11T08:51:57.830Z,65.783691
2019-04-11T08:57:20.024Z,62.750244
2019-04-11T09:02:42.861Z,61.999512
2019-04-11T09:08:05.767Z,60.449219
2019-04-11T09:13:27.223Z,60.064697
2019-04-11T09:18:52.371Z,58.575439
2019-04-11T09:24:15.353Z,58.728027
2019-04-11T09:29:38.043Z,56.799316
2019-04-11T09:35:01.838Z,56.903076
2019-04-11T09:40:26.038Z,55.926514
2019-04-11T09:45:47.999Z,55.664062
2019-04-11T09:51:11.429Z,56.512451
2019-04-11T09:56:33.380Z,52.337646
2019-04-11T10:01:56.154Z,55.743408
2019-04-11T10:07:19.613Z,53.204346
2019-04-11T10:12:42.411Z,50.524902
2019-04-11T10:18:05.188Z,52.13623
2019-04-11T10:23:29.165Z,53.051758
2019-04-11T10:28:51.653Z,53.741455
2019-04-11T10:34:13.872Z,50.494385
2019-04-11T10:39:37.506Z,49.060059
2019-04-11T10:45:00.364Z,52.850342
2019-04-11T10:50:23.667Z,49.401855
2019-04-11T10:55:46.128Z,53.33252
2019-04-11T11:01:09.468Z,48.748779
2019-04-11T11:06:32.014Z,52.587891
2019-04-11T11:11:54.897Z,52.923584
2019-04-11T11:17:39.838Z,53.717041
2019-04-11T11:22:41.854Z,55.102539
2019-04-11T11:28:03.768Z,51.794434
2019-04-11T11:33:26.587Z,49.926758
2019-04-11T11:38:50.005Z,50.128174
2019-04-11T11:44:11.812Z,51.177979
2019-04-11T11:49:45.517Z,48.077393
2019-04-11T11:54:59.822Z,44.98291
2019-04-11T12:00:22.060Z,48.327637
2019-04-11T12:05:48.265Z,49.627686
2019-04-11T12:11:10.146Z,50.860596
2019-04-11T12:16:33.049Z,54.35791
2019-04-11T12:21:55.950Z,52.685547
2019-04-11T12:27:20.176Z,53.509521
2019-04-11T12:32:42.646Z,50.915527
2019-04-11T12:38:05.308Z,48.638916
2019-04-11T12:43:27.946Z,48.693848
2019-04-11T12:48:50.685Z,47.442627
2019-04-11T12:54:13.361Z,46.905518
2019-04-11T12:59:36.021Z,48.797607
2019-04-11T13:04:59.200Z,45.245361
2019-04-11T13:10:23.954Z,41.75415
2019-04-11T13:15:44.925Z,47.155762
2019-04-11T13:21:07.848Z,48.077393
2019-04-11T13:26:30.668Z,50.12207
2019-04-11T13:31:53.440Z,50.939941
2019-04-11T13:37:16.214Z,48.864746
2019-04-11T13:42:38.944Z,53.326416
2019-04-11T13:48:01.599Z,55.175781
2019-04-11T13:53:24.426Z,55.487061
2019-04-11T13:58:47.944Z,53.717041
2019-04-11T14:04:10.687Z,53.790283
2019-04-11T14:09:34.252Z,51.586914
2019-04-11T14:14:57.085Z,48.968506
2019-04-11T14:20:28.919Z,50.665283
2019-04-11T14:25:44.523Z,48.059082
2019-04-11T14:31:07.354Z,46.582031
2019-04-11T14:36:33.321Z,45.965576
2019-04-11T14:41:52.810Z,48.443604
2019-04-11T14:47:15.717Z,48.364258
2019-04-11T14:52:38.753Z,43.341064
2019-04-11T14:58:02.827Z,45.739746
2019-04-11T15:03:25.975Z,44.592285
2019-04-11T15:08:49.500Z,49.023438
2019-04-11T15:14:12.505Z,50.506592
2019-04-11T15:19:35.314Z,49.194336
2019-04-11T15:24:58.230Z,48.0896
2019-04-11T15:30:22.042Z,46.276855
2019-04-11T15:35:44.810Z,50.256348
2019-04-11T15:41:07.559Z,46.459961
2019-04-11T15:46:30.447Z,44.616699
2019-04-11T15:51:53.192Z,44.9646
2019-04-11T15:57:16.070Z,46.136475
2019-04-11T16:02:38.735Z,44.07959
2019-04-11T16:08:01.570Z,49.32251
2019-04-11T16:13:24.940Z,42.565918
2019-04-11T16:18:48.788Z,44.65332
2019-04-11T16:24:11.600Z,44.40918
2019-04-11T16:29:38.644Z,44.946289
2019-04-11T16:34:59.363Z,45.76416
2019-04-11T16:40:23.093Z,45.172119
2019-04-11T16:45:45.020Z,45.477295
2019-04-11T16:51:08.669Z,44.30542
2019-04-11T16:56:31.418Z,44.616699
2019-04-11T17:01:54.417Z,43.792725
2019-04-11T17:07:17.027Z,43.731689
2019-04-11T17:12:40.716Z,45.08667
2019-04-11T17:18:03.575Z,49.822998
2019-04-11T17:23:26.869Z,45.935059
2019-04-11T17:28:53.423Z,47.601318
2019-04-11T17:34:12.665Z,46.264648
2019-04-11T17:39:36.758Z,50.408936
2019-04-11T17:44:58.345Z,46.801758
2019-04-11T17:50:21.809Z,47.625732
2019-04-11T17:55:44.478Z,47.418213
2019-04-11T18:01:08.190Z,47.546387
2019-04-11T18:06:31.345Z,49.090576
2019-04-11T18:11:56.095Z,50.22583
2019-04-11T18:17:16.719Z,49.42627
2019-04-11T18:22:39.748Z,50.170898
2019-04-11T18:28:04.498Z,50.292969
2019-04-11T18:33:31.383Z,54.864502
2019-04-11T18:38:49.915Z,54.272461
2019-04-11T18:44:11.941Z,56.646729
2019-04-11T18:49:34.769Z,55.407715
2019-04-11T18:54:57.541Z,54.168701
2019-04-11T19:00:20.511Z,52.905273
2019-04-11T19:05:43.600Z,55.79834
2019-04-11T19:11:06.306Z,58.636475
2019-04-11T19:16:30.159Z,61.608887
2019-04-11T19:21:52.847Z,62.646484
2019-04-11T19:27:17.645Z,66.088867
2019-04-11T19:32:39.216Z,64.123535
2019-04-11T19:38:01.956Z,63.739014
2019-04-11T19:43:25.780Z,68.493652
2019-04-11T19:48:48.578Z,64.123535
2019-04-11T19:54:12.257Z,68.188477
2019-04-11T19:59:35.059Z,66.52832
2019-04-11T20:04:58.410Z,72.119141
2019-04-11T20:10:20.617Z,61.773682
2019-04-11T20:15:44.420Z,58.123779
2019-04-11T20:21:08.189Z,55.279541
2019-04-11T20:26:30.641Z,55.926514
2019-04-11T20:31:53.415Z,55.895996
2019-04-11T20:37:16.093Z,55.926514
2019-04-11T20:42:39.762Z,56.237793
2019-04-11T20:48:02.524Z,54.064941
2019-04-11T20:53:25.325Z,56.134033
2019-04-11T20:58:48.054Z,55.926514
2019-04-11T21:04:10.779Z,55.303955
2019-04-11T21:09:33.922Z,57.397461
2019-04-11T21:14:56.679Z,56.469727
2019-04-11T21:20:19.396Z,56.573486
2019-04-11T21:25:42.100Z,56.365967
2019-04-11T21:31:04.799Z,57.293701
2019-04-11T21:36:31.421Z,59.49707
2019-04-11T21:41:51.266Z,59.49707
2019-04-11T21:47:13.943Z,61.151123
2019-04-11T21:52:36.661Z,59.289551
2019-04-11T21:58:00.401Z,58.459473
2019-04-11T22:03:24.213Z,59.521484
2019-04-11T22:08:45.916Z,62.524414
2019-04-11T22:14:11.158Z,59.729004
2019-04-11T22:19:31.903Z,62.554932
2019-04-11T22:24:54.640Z,65.899658
2019-04-11T22:30:17.563Z,65.588379
2019-04-11T22:35:41.292Z,65.2771
2019-04-11T22:41:04.401Z,64.373779
2019-04-11T22:46:27.094Z,60.302734
2019-04-11T22:51:50.959Z,58.538818
2019-04-11T22:57:13.705Z,57.788086
2019-04-11T23:02:36.750Z,60.510254
2019-04-11T23:08:02.747Z,60.198975
2019-04-11T23:13:23.365Z,59.991455
2019-04-11T23:18:46.158Z,62.268066
2019-04-11T23:24:11.936Z,60.302734
2019-04-11T23:29:31.582Z,59.472656
2019-04-11T23:34:54.220Z,60.095215
2019-04-11T23:40:18.670Z,60.198975
2019-04-11T23:45:39.597Z,58.642578
2019-04-11T23:51:02.341Z,59.265137
2019-04-11T23:56:25.018Z,60.534668
